createdAt,value
2023-05-10T00:00:08.929Z,599.00
2023-05-10T00:01:08.965Z,600.00
2023-05-10T00:02:09.996Z,607.00
2023-05-10T00:03:10.112Z,609.00
2023-05-10T00:04:10.128Z,609.00
2023-05-10T00:05:10.086Z,609.00
2023-05-10T00:06:09.075Z,603.00
2023-05-10T00:07:10.100Z,601.00
2023-05-10T00:08:10.212Z,606.00
2023-05-10T00:09:10.193Z,600.00
2023-05-10T00:10:09.202Z,607.00
2023-05-10T00:11:10.257Z,606.00
2023-05-10T00:12:09.281Z,617.00
2023-05-10T00:13:09.402Z,612.00
2023-05-10T00:14:09.365Z,601.00
2023-05-10T00:15:10.388Z,610.00
2023-05-10T00:16:10.458Z,609.00
2023-05-10T00:17:10.398Z,610.00
2023-05-10T00:18:10.524Z,616.00
2023-05-10T00:19:10.526Z,615.00
2023-05-10T00:20:10.544Z,612.00
2023-05-10T00:21:10.593Z,601.00
2023-05-10T00:22:10.588Z,612.00
2023-05-10T00:23:09.611Z,596.00
2023-05-10T00:24:09.647Z,613.00
2023-05-10T00:25:10.644Z,621.00
2023-05-10T00:26:09.754Z,612.00
2023-05-10T00:27:10.716Z,603.00
2023-05-10T00:28:10.715Z,610.00
2023-05-10T00:29:10.767Z,607.00
2023-05-10T00:30:09.724Z,603.00
2023-05-10T00:31:10.811Z,610.00
2023-05-10T00:32:09.831Z,611.00
2023-05-10T00:33:10.883Z,607.00
2023-05-10T00:34:10.891Z,603.00
2023-05-10T00:35:10.832Z,609.00
2023-05-10T00:36:10.975Z,612.00
2023-05-10T00:37:09.936Z,599.00
2023-05-10T00:38:11.019Z,621.00
2023-05-10T00:39:10.080Z,608.00
2023-05-10T00:40:11.045Z,616.00
2023-05-10T00:41:11.059Z,607.00
2023-05-10T00:42:11.012Z,619.00
2023-05-10T00:43:11.042Z,617.00
2023-05-10T00:44:11.100Z,622.00
2023-05-10T00:45:10.126Z,614.00
2023-05-10T00:46:10.255Z,598.00
2023-05-10T00:47:11.231Z,606.00
2023-05-10T00:48:10.221Z,606.00
2023-05-10T00:49:11.263Z,615.00
2023-05-10T00:50:10.286Z,613.00
2023-05-10T00:51:10.340Z,613.00
2023-05-10T00:52:11.368Z,610.00
2023-05-10T00:53:11.374Z,608.00
2023-05-10T00:54:11.378Z,613.00
2023-05-10T00:55:11.408Z,603.00
2023-05-10T00:56:11.458Z,606.00
2023-05-10T00:57:11.474Z,618.00
2023-05-10T00:58:11.518Z,609.00
2023-05-10T00:59:11.572Z,612.00
2023-05-10T01:00:11.579Z,608.00
2023-05-10T01:01:11.635Z,616.00
2023-05-10T01:02:10.688Z,611.00
2023-05-10T01:03:11.846Z,604.00
2023-05-10T01:04:11.725Z,604.00
2023-05-10T01:05:10.808Z,609.00
2023-05-10T01:06:11.812Z,620.00
2023-05-10T01:07:10.810Z,613.00
2023-05-10T01:08:11.925Z,610.00
2023-05-10T01:09:11.001Z,616.00
2023-05-10T01:10:12.012Z,606.00
2023-05-10T01:11:12.083Z,611.00
2023-05-10T01:12:11.097Z,615.00
2023-05-10T01:13:12.126Z,607.00
2023-05-10T01:14:12.148Z,614.00
2023-05-10T01:15:11.167Z,618.00
2023-05-10T01:16:11.202Z,624.00
2023-05-10T01:17:12.269Z,602.00
2023-05-10T01:18:11.266Z,614.00
2023-05-10T01:19:12.372Z,613.00
2023-05-10T01:20:12.349Z,617.00
2023-05-10T01:21:11.403Z,613.00
2023-05-10T01:22:12.450Z,619.00
2023-05-10T01:23:12.418Z,611.00
2023-05-10T01:24:11.450Z,613.00
2023-05-10T01:25:12.494Z,614.00
2023-05-10T01:26:12.502Z,611.00
2023-05-10T01:27:12.506Z,609.00
2023-05-10T01:28:12.558Z,610.00
2023-05-10T01:29:12.560Z,621.00
2023-05-10T01:30:15.897Z,617.00
2023-05-10T01:31:12.597Z,617.00
2023-05-10T01:32:11.568Z,614.00
2023-05-10T01:33:11.548Z,617.00
2023-05-10T01:34:11.512Z,622.00
2023-05-10T01:35:11.593Z,610.00
2023-05-10T01:36:11.505Z,625.00
2023-05-10T01:37:11.509Z,610.00
2023-05-10T01:38:11.521Z,614.00
2023-05-10T01:39:12.532Z,609.00
2023-05-10T01:40:12.549Z,608.00
2023-05-10T01:41:12.510Z,613.00
2023-05-10T01:42:11.497Z,614.00
2023-05-10T01:43:11.453Z,622.00
2023-05-10T01:44:11.504Z,617.00
2023-05-10T01:45:12.472Z,615.00
2023-05-10T01:46:11.637Z,626.00
2023-05-10T01:47:11.430Z,616.00
2023-05-10T01:48:12.515Z,630.00
2023-05-10T01:49:12.440Z,621.00
2023-05-10T01:50:11.499Z,616.00
2023-05-10T01:51:12.557Z,619.00
2023-05-10T01:52:11.534Z,606.00
2023-05-10T01:53:12.606Z,617.00
2023-05-10T01:54:11.545Z,606.00
2023-05-10T01:55:12.540Z,622.00
2023-05-10T01:56:11.542Z,629.00
2023-05-10T01:57:12.572Z,610.00
2023-05-10T01:58:12.592Z,609.00
2023-05-10T01:59:12.623Z,623.00
2023-05-10T02:00:11.669Z,622.00
2023-05-10T02:01:12.741Z,623.00
2023-05-10T02:02:11.690Z,625.00
2023-05-10T02:03:12.870Z,615.00
2023-05-10T02:04:12.762Z,629.00
2023-05-10T02:05:11.776Z,618.00
2023-05-10T02:06:11.806Z,615.00
2023-05-10T02:07:12.800Z,618.00
2023-05-10T02:08:12.806Z,609.00
2023-05-10T02:09:12.793Z,621.00
2023-05-10T02:10:12.913Z,610.00
2023-05-10T02:11:12.837Z,603.00
2023-05-10T02:12:12.811Z,602.00
2023-05-10T02:13:11.933Z,627.00
2023-05-10T02:14:11.865Z,609.00
2023-05-10T02:15:12.920Z,604.00
2023-05-10T02:16:12.976Z,616.00
2023-05-10T02:17:12.893Z,606.00
2023-05-10T02:18:12.927Z,611.00
2023-05-10T02:19:11.905Z,620.00
2023-05-10T02:20:12.928Z,616.00
2023-05-10T02:21:12.904Z,614.00
2023-05-10T02:22:12.947Z,621.00
2023-05-10T02:23:12.983Z,608.00
2023-05-10T02:24:12.984Z,614.00
2023-05-10T02:25:13.024Z,620.00
2023-05-10T02:26:12.060Z,613.00
2023-05-10T02:27:13.501Z,614.00
2023-05-10T02:28:13.051Z,625.00
2023-05-10T02:29:13.061Z,627.00
2023-05-10T02:30:13.123Z,607.00
2023-05-10T02:31:13.103Z,613.00
2023-05-10T02:32:13.163Z,614.00
2023-05-10T02:33:13.074Z,609.00
2023-05-10T02:34:13.075Z,623.00
2023-05-10T02:35:13.095Z,617.00
2023-05-10T02:36:13.127Z,633.00
2023-05-10T02:37:12.126Z,617.00
2023-05-10T02:38:13.153Z,622.00
2023-05-10T02:39:12.155Z,609.00
2023-05-10T02:40:13.201Z,619.00
2023-05-10T02:41:13.159Z,621.00
2023-05-10T02:42:12.168Z,623.00
2023-05-10T02:43:13.165Z,616.00
2023-05-10T02:44:12.186Z,615.00
2023-05-10T02:45:13.210Z,608.00
2023-05-10T02:46:12.220Z,612.00
2023-05-10T02:47:13.202Z,619.00
2023-05-10T02:48:13.334Z,609.00
2023-05-10T02:49:13.289Z,619.00
2023-05-10T02:50:13.333Z,626.00
2023-05-10T02:51:13.307Z,619.00
2023-05-10T02:52:13.273Z,619.00
2023-05-10T02:53:13.301Z,629.00
2023-05-10T02:54:14.008Z,622.00
2023-05-10T02:55:13.434Z,630.00
2023-05-10T02:56:12.425Z,611.00
2023-05-10T02:57:12.416Z,615.00
2023-05-10T02:58:13.484Z,617.00
2023-05-10T02:59:12.501Z,623.00
2023-05-10T03:00:13.542Z,610.00
2023-05-10T03:01:13.531Z,626.00
2023-05-10T03:02:13.495Z,613.00
2023-05-10T03:03:13.505Z,615.00
2023-05-10T03:04:13.625Z,628.00
2023-05-10T03:05:12.637Z,611.00
2023-05-10T03:06:13.616Z,612.00
2023-05-10T03:07:12.613Z,612.00
2023-05-10T03:08:12.665Z,614.00
2023-05-10T03:09:13.647Z,630.00
2023-05-10T03:10:13.687Z,605.00
2023-05-10T03:11:12.580Z,627.00
2023-05-10T03:12:13.662Z,629.00
2023-05-10T03:13:13.845Z,613.00
2023-05-10T03:14:13.659Z,619.00
2023-05-10T03:15:13.605Z,619.00
2023-05-10T03:16:12.674Z,610.00
2023-05-10T03:17:13.624Z,617.00
2023-05-10T03:18:13.745Z,624.00
2023-05-10T03:19:12.684Z,628.00
2023-05-10T03:20:13.713Z,614.00
2023-05-10T03:21:13.707Z,602.00
2023-05-10T03:22:13.704Z,624.00
2023-05-10T03:23:13.720Z,614.00
2023-05-10T03:24:13.747Z,617.00
2023-05-10T03:25:13.761Z,627.00
2023-05-10T03:26:13.803Z,620.00
2023-05-10T03:27:12.776Z,618.00
2023-05-10T03:28:13.793Z,620.00
2023-05-10T03:29:13.823Z,632.00
2023-05-10T03:30:13.949Z,614.00
2023-05-10T03:31:13.872Z,616.00
2023-05-10T03:32:12.862Z,619.00
2023-05-10T03:33:12.821Z,624.00
2023-05-10T03:34:13.812Z,624.00
2023-05-10T03:35:12.843Z,631.00
2023-05-10T03:36:13.835Z,619.00
2023-05-10T03:37:12.838Z,614.00
2023-05-10T03:38:12.844Z,619.00
2023-05-10T03:39:13.816Z,622.00
2023-05-10T03:40:12.814Z,613.00
2023-05-10T03:41:13.833Z,619.00
2023-05-10T03:42:12.898Z,623.00
2023-05-10T03:43:12.854Z,624.00
2023-05-10T03:44:13.833Z,612.00
2023-05-10T03:45:12.801Z,610.00
2023-05-10T03:46:12.919Z,614.00
2023-05-10T03:47:12.786Z,619.00
2023-05-10T03:48:13.900Z,613.00
2023-05-10T03:49:13.815Z,627.00
2023-05-10T03:50:13.813Z,615.00
2023-05-10T03:51:12.911Z,620.00
2023-05-10T03:52:13.783Z,617.00
2023-05-10T03:53:12.828Z,627.00
2023-05-10T03:54:12.832Z,624.00
2023-05-10T03:55:13.867Z,627.00
2023-05-10T03:56:12.839Z,612.00
2023-05-10T03:57:13.865Z,626.00
2023-05-10T03:58:12.828Z,619.00
2023-05-10T03:59:13.758Z,614.00
2023-05-10T04:00:13.817Z,607.00
2023-05-10T04:01:12.746Z,606.00
2023-05-10T04:02:13.744Z,623.00
2023-05-10T04:03:12.864Z,620.00
2023-05-10T04:04:13.804Z,611.00
2023-05-10T04:05:12.739Z,616.00
2023-05-10T04:06:13.772Z,631.00
2023-05-10T04:07:13.754Z,621.00
2023-05-10T04:08:13.717Z,616.00
2023-05-10T04:09:12.732Z,610.00
2023-05-10T04:10:13.751Z,624.00
2023-05-10T04:11:13.705Z,630.00
2023-05-10T04:12:12.744Z,632.00
2023-05-10T04:13:13.830Z,613.00
2023-05-10T04:14:13.725Z,616.00
2023-05-10T04:15:12.689Z,622.00
2023-05-10T04:16:13.784Z,617.00
2023-05-10T04:17:12.824Z,625.00
2023-05-10T04:18:12.691Z,620.00
2023-05-10T04:19:12.698Z,625.00
2023-05-10T04:20:12.695Z,617.00
2023-05-10T04:21:13.709Z,618.00
2023-05-10T04:22:13.687Z,614.00
2023-05-10T04:23:12.669Z,607.00
2023-05-10T04:24:13.687Z,624.00
2023-05-10T04:25:13.727Z,617.00
2023-05-10T04:26:12.708Z,608.00
2023-05-10T04:27:13.742Z,623.00
2023-05-10T04:28:13.782Z,610.00
2023-05-10T04:29:12.824Z,616.00
2023-05-10T04:30:13.744Z,613.00
2023-05-10T04:31:13.691Z,610.00
2023-05-10T04:32:12.737Z,620.00
2023-05-10T04:33:13.652Z,608.00
2023-05-10T04:34:13.680Z,629.00
2023-05-10T04:35:13.648Z,624.00
2023-05-10T04:36:13.652Z,625.00
2023-05-10T04:37:13.654Z,619.00
2023-05-10T04:38:13.640Z,621.00
2023-05-10T04:39:12.640Z,624.00
2023-05-10T04:40:12.671Z,621.00
2023-05-10T04:41:13.734Z,613.00
2023-05-10T04:42:12.670Z,615.00
2023-05-10T04:43:12.702Z,629.00
2023-05-10T04:44:13.619Z,613.00
2023-05-10T04:45:12.619Z,617.00
2023-05-10T04:46:12.676Z,621.00
2023-05-10T04:47:13.615Z,616.00
2023-05-10T04:48:12.610Z,628.00
2023-05-10T04:49:13.643Z,629.00
2023-05-10T04:50:12.658Z,616.00
2023-05-10T04:51:13.627Z,617.00
2023-05-10T04:52:12.672Z,623.00
2023-05-10T04:53:15.834Z,630.00
2023-05-10T04:54:13.606Z,623.00
2023-05-10T04:55:13.578Z,633.00
2023-05-10T04:56:13.590Z,626.00
2023-05-10T04:57:13.574Z,616.00
2023-05-10T04:58:13.591Z,622.00
2023-05-10T04:59:13.574Z,614.00
2023-05-10T05:00:13.561Z,605.00
2023-05-10T05:01:13.621Z,625.00
2023-05-10T05:02:13.591Z,613.00
2023-05-10T05:03:12.664Z,614.00
2023-05-10T05:04:13.564Z,610.00
2023-05-10T05:05:12.614Z,621.00
2023-05-10T05:06:12.595Z,624.00
2023-05-10T05:07:13.724Z,605.00
2023-05-10T05:08:13.534Z,619.00
2023-05-10T05:09:12.618Z,614.00
2023-05-10T05:10:13.522Z,606.00
2023-05-10T05:11:12.528Z,619.00
2023-05-10T05:12:13.466Z,625.00
2023-05-10T05:13:13.506Z,619.00
2023-05-10T05:14:13.456Z,613.00
2023-05-10T05:15:12.436Z,621.00
2023-05-10T05:16:13.579Z,611.00
2023-05-10T05:17:13.471Z,617.00
2023-05-10T05:18:13.539Z,610.00
2023-05-10T05:19:12.498Z,618.00
2023-05-10T05:20:13.469Z,624.00
2023-05-10T05:21:13.425Z,627.00
2023-05-10T05:22:13.422Z,619.00
2023-05-10T05:23:13.431Z,620.00
2023-05-10T05:24:12.406Z,616.00
2023-05-10T05:25:13.408Z,626.00
2023-05-10T05:26:13.419Z,610.00
2023-05-10T05:27:13.368Z,623.00
2023-05-10T05:28:12.347Z,635.00
2023-05-10T05:29:12.421Z,626.00
2023-05-10T05:30:13.510Z,615.00
2023-05-10T05:31:12.410Z,621.00
2023-05-10T05:32:13.420Z,633.00
2023-05-10T05:33:13.313Z,632.00
2023-05-10T05:34:13.475Z,628.00
2023-05-10T05:35:13.306Z,617.00
2023-05-10T05:36:12.362Z,637.00
2023-05-10T05:37:13.510Z,649.00
2023-05-10T05:38:13.528Z,645.00
2023-05-10T05:39:12.296Z,643.00
2023-05-10T05:40:13.263Z,657.00
2023-05-10T05:41:12.305Z,681.00
2023-05-10T05:42:13.244Z,675.00
2023-05-10T05:43:13.257Z,679.00
2023-05-10T05:44:12.297Z,678.00
2023-05-10T05:45:13.264Z,672.00
2023-05-10T05:46:19.609Z,695.00
2023-05-10T05:47:13.278Z,697.00
2023-05-10T05:48:12.214Z,687.00
2023-05-10T05:49:13.206Z,654.00
2023-05-10T05:50:13.226Z,647.00
2023-05-10T05:51:13.193Z,655.00
2023-05-10T05:52:13.203Z,652.00
2023-05-10T05:53:12.186Z,635.00
2023-05-10T05:54:13.155Z,624.00
2023-05-10T05:55:13.147Z,615.00
2023-05-10T05:56:12.148Z,630.00
2023-05-10T05:57:13.203Z,605.00
2023-05-10T05:58:13.144Z,597.00
2023-05-10T05:59:13.176Z,582.00
2023-05-10T06:00:13.143Z,606.00
2023-05-10T06:01:12.134Z,612.00
2023-05-10T06:02:13.604Z,620.00
2023-05-10T06:03:12.197Z,620.00
2023-05-10T06:04:13.159Z,609.00
2023-05-10T06:05:12.091Z,612.00
2023-05-10T06:06:13.133Z,598.00
2023-05-10T06:07:13.073Z,579.00
2023-05-10T06:08:12.055Z,576.00
2023-05-10T06:09:13.054Z,575.00
2023-05-10T06:10:13.045Z,555.00
2023-05-10T06:11:12.053Z,543.00
2023-05-10T06:12:13.165Z,538.00
2023-05-10T06:13:12.071Z,535.00
2023-05-10T06:14:12.049Z,541.00
2023-05-10T06:15:13.080Z,527.00
2023-05-10T06:16:12.032Z,523.00
2023-05-10T06:17:12.015Z,520.00
2023-05-10T06:18:13.013Z,519.00
2023-05-10T06:19:12.988Z,519.00
2023-05-10T06:20:12.984Z,520.00
2023-05-10T06:21:12.990Z,515.00
2023-05-10T06:22:13.057Z,519.00
2023-05-10T06:23:11.941Z,515.00
2023-05-10T06:24:11.926Z,512.00
2023-05-10T06:25:12.972Z,517.00
2023-05-10T06:26:11.987Z,516.00
2023-05-10T06:27:12.984Z,512.00
2023-05-10T06:28:12.978Z,510.00
2023-05-10T06:29:12.964Z,514.00
2023-05-10T06:30:13.718Z,513.00
2023-05-10T06:31:13.044Z,513.00
2023-05-10T06:32:12.999Z,512.00
2023-05-10T06:33:12.055Z,509.00
2023-05-10T06:34:12.995Z,508.00
2023-05-10T06:35:12.996Z,511.00
2023-05-10T06:36:13.006Z,503.00
2023-05-10T06:37:11.995Z,506.00
2023-05-10T06:38:12.004Z,507.00
2023-05-10T06:39:13.003Z,503.00
2023-05-10T06:40:13.010Z,506.00
2023-05-10T06:41:11.988Z,508.00
2023-05-10T06:42:13.009Z,505.00
2023-05-10T06:43:12.994Z,502.00
2023-05-10T06:44:12.996Z,504.00
2023-05-10T06:45:13.004Z,502.00
2023-05-10T06:46:13.020Z,503.00
2023-05-10T06:47:13.005Z,503.00
2023-05-10T06:48:13.064Z,500.00
2023-05-10T06:49:11.997Z,501.00
2023-05-10T06:50:12.008Z,504.00
2023-05-10T06:51:12.005Z,508.00
2023-05-10T06:52:13.101Z,508.00
2023-05-10T06:53:13.013Z,508.00
2023-05-10T06:54:12.050Z,509.00
2023-05-10T06:55:12.023Z,518.00
2023-05-10T06:56:12.026Z,513.00
2023-05-10T06:57:23.285Z,514.00
2023-05-10T06:58:13.040Z,515.00
2023-05-10T06:59:12.023Z,516.00
2023-05-10T07:00:12.084Z,515.00
2023-05-10T07:01:12.098Z,516.00
2023-05-10T07:02:12.994Z,514.00
2023-05-10T07:03:13.015Z,513.00
2023-05-10T07:04:11.955Z,513.00
2023-05-10T07:05:11.961Z,507.00
2023-05-10T07:06:21.591Z,508.00
2023-05-10T07:07:12.946Z,508.00
2023-05-10T07:08:12.923Z,508.00
2023-05-10T07:09:12.910Z,510.00
2023-05-10T07:10:12.092Z,513.00
2023-05-10T07:11:11.926Z,507.00
2023-05-10T07:12:15.016Z,517.00
2023-05-10T07:13:12.977Z,517.00
2023-05-10T07:14:12.911Z,518.00
2023-05-10T07:15:12.871Z,511.00
2023-05-10T07:16:11.902Z,496.00
2023-05-10T07:17:12.905Z,503.00
2023-05-10T07:18:12.889Z,497.00
2023-05-10T07:19:11.859Z,500.00
2023-05-10T07:20:11.838Z,500.00
2023-05-10T07:21:12.867Z,500.00
2023-05-10T07:22:11.830Z,505.00
2023-05-10T07:23:11.818Z,500.00
2023-05-10T07:24:12.814Z,500.00
2023-05-10T07:25:11.811Z,500.00
2023-05-10T07:26:12.827Z,500.00
2023-05-10T07:27:11.805Z,490.00
2023-05-10T07:28:12.777Z,500.00
2023-05-10T07:29:14.833Z,502.00
2023-05-10T07:30:12.763Z,503.00
2023-05-10T07:31:11.758Z,505.00
2023-05-10T07:32:13.175Z,508.00
2023-05-10T07:33:12.802Z,518.00
2023-05-10T07:34:12.723Z,530.00
2023-05-10T07:35:12.725Z,522.00
2023-05-10T07:36:12.707Z,542.00
2023-05-10T07:37:12.697Z,545.00
2023-05-10T07:38:12.716Z,550.00
2023-05-10T07:39:16.254Z,542.00
2023-05-10T07:40:12.716Z,543.00
2023-05-10T07:41:12.673Z,545.00
2023-05-10T07:42:11.703Z,550.00
2023-05-10T07:43:12.649Z,559.00
2023-05-10T07:44:11.650Z,572.00
2023-05-10T07:45:12.646Z,579.00
2023-05-10T07:46:12.657Z,572.00
2023-05-10T07:47:13.097Z,570.00
2023-05-10T07:48:12.682Z,597.00
2023-05-10T07:49:12.666Z,627.00
2023-05-10T07:50:12.648Z,651.00
2023-05-10T07:51:12.609Z,701.00
2023-05-10T07:52:11.587Z,731.00
2023-05-10T07:53:11.588Z,751.00
2023-05-10T07:54:11.580Z,788.00
2023-05-10T07:55:11.581Z,839.00
2023-05-10T07:56:12.578Z,881.00
2023-05-10T07:57:12.551Z,933.00
2023-05-10T07:58:11.552Z,975.00
2023-05-10T07:59:12.956Z,956.00
2023-05-10T08:00:11.535Z,994.00
2023-05-10T08:01:11.539Z,1061.00
2023-05-10T08:02:12.613Z,1074.00
2023-05-10T08:03:11.643Z,1099.00
2023-05-10T08:04:11.536Z,1135.00
2023-05-10T08:05:12.507Z,1167.00
2023-05-10T08:06:12.489Z,1171.00
2023-05-10T08:07:12.511Z,1189.00
2023-05-10T08:08:11.475Z,1174.00
2023-05-10T08:09:12.484Z,1192.00
2023-05-10T08:10:11.487Z,1238.00
2023-05-10T08:11:11.471Z,1228.00
2023-05-10T08:12:11.491Z,1227.00
2023-05-10T08:13:11.499Z,1246.00
2023-05-10T08:14:11.601Z,1227.00
2023-05-10T08:15:12.615Z,1250.00
2023-05-10T08:16:12.651Z,1252.00
2023-05-10T08:17:12.654Z,1244.00
2023-05-10T08:18:12.749Z,1275.00
2023-05-10T08:19:11.803Z,1278.00
2023-05-10T08:20:11.805Z,1267.00
2023-05-10T08:21:12.798Z,1288.00
2023-05-10T08:22:12.831Z,1287.00
2023-05-10T08:23:11.853Z,1292.00
2023-05-10T08:24:12.892Z,1290.00
2023-05-10T08:25:12.916Z,1311.00
2023-05-10T08:26:12.921Z,1301.00
2023-05-10T08:27:12.983Z,1282.00
2023-05-10T08:28:13.017Z,1293.00
2023-05-10T08:29:13.002Z,1316.00
2023-05-10T08:30:13.177Z,1306.00
2023-05-10T08:31:13.090Z,1309.00
2023-05-10T08:32:13.079Z,1351.00
2023-05-10T08:33:12.161Z,1348.00
2023-05-10T08:34:13.131Z,1362.00
2023-05-10T08:35:13.207Z,1328.00
2023-05-10T08:36:13.182Z,1363.00
2023-05-10T08:37:12.202Z,1384.00
2023-05-10T08:38:13.203Z,1396.00
2023-05-10T08:39:22.855Z,1399.00
2023-05-10T08:40:13.228Z,1401.00
2023-05-10T08:41:13.199Z,1412.00
2023-05-10T08:42:13.631Z,1423.00
2023-05-10T08:43:12.191Z,1471.00
2023-05-10T08:44:13.173Z,1517.00
2023-05-10T08:45:12.160Z,1514.00
2023-05-10T08:46:12.222Z,1522.00
2023-05-10T08:47:12.756Z,1541.00
2023-05-10T08:48:13.131Z,1542.00
2023-05-10T08:49:13.161Z,1546.00
2023-05-10T08:50:13.112Z,1555.00
2023-05-10T08:51:13.145Z,1578.00
2023-05-10T08:52:13.124Z,1575.00
2023-05-10T08:53:13.627Z,1558.00
2023-05-10T08:54:13.097Z,1572.00
2023-05-10T08:55:12.078Z,1579.00
2023-05-10T08:56:13.100Z,1606.00
2023-05-10T08:57:13.282Z,1572.00
2023-05-10T08:58:13.129Z,1566.00
2023-05-10T08:59:12.045Z,1568.00
2023-05-10T09:00:12.043Z,1602.00
2023-05-10T09:01:13.087Z,1626.00
2023-05-10T09:02:12.068Z,1654.00
2023-05-10T09:03:13.041Z,1689.00
2023-05-10T09:04:12.121Z,1708.00
2023-05-10T09:05:12.025Z,1737.00
2023-05-10T09:06:11.991Z,1750.00
2023-05-10T09:07:12.995Z,1801.00
2023-05-10T09:08:13.001Z,1854.00
2023-05-10T09:09:12.992Z,1887.00
2023-05-10T09:10:13.615Z,1906.00
2023-05-10T09:11:13.073Z,1945.00
2023-05-10T09:12:12.130Z,1959.00
2023-05-10T09:13:13.177Z,1985.00
2023-05-10T09:14:13.301Z,1981.00
2023-05-10T09:15:13.272Z,1993.00
2023-05-10T09:16:21.060Z,2017.00
2023-05-10T09:17:13.438Z,2019.00
2023-05-10T09:18:13.445Z,2027.00
2023-05-10T09:19:13.424Z,2039.00
2023-05-10T09:20:12.279Z,2059.00
2023-05-10T09:21:12.314Z,2096.00
2023-05-10T09:22:13.280Z,2123.00
2023-05-10T09:23:12.277Z,2131.00
2023-05-10T09:24:13.279Z,2152.00
2023-05-10T09:25:12.276Z,2177.00
2023-05-10T09:26:13.250Z,2192.00
2023-05-10T09:27:12.235Z,2204.00
2023-05-10T09:28:13.638Z,2218.00
2023-05-10T09:29:12.223Z,2242.00
2023-05-10T09:30:13.231Z,2253.00
2023-05-10T09:31:13.250Z,2274.00
2023-05-10T09:32:13.924Z,2291.00
2023-05-10T09:33:13.189Z,2305.00
2023-05-10T09:34:12.222Z,2320.00
2023-05-10T09:35:13.165Z,2347.00
2023-05-10T09:36:12.203Z,2354.00
2023-05-10T09:37:13.181Z,2366.00
2023-05-10T09:38:12.213Z,2391.00
2023-05-10T09:39:13.133Z,2400.00
2023-05-10T09:40:13.147Z,2413.00
2023-05-10T09:41:12.117Z,2432.00
2023-05-10T09:42:12.156Z,2457.00
2023-05-10T09:43:12.126Z,2476.00
2023-05-10T09:44:13.105Z,2497.00
2023-05-10T09:45:12.172Z,2525.00
2023-05-10T09:46:13.104Z,2537.00
2023-05-10T09:47:12.070Z,2548.00
2023-05-10T09:48:13.192Z,2555.00
2023-05-10T09:49:13.659Z,2569.00
2023-05-10T09:50:13.120Z,2573.00
2023-05-10T09:51:12.152Z,2565.00
2023-05-10T09:52:13.201Z,2560.00
2023-05-10T09:53:12.660Z,2564.00
2023-05-10T09:54:12.308Z,2343.00
2023-05-10T09:55:13.331Z,2021.00
2023-05-10T09:56:13.307Z,1751.00
2023-05-10T09:57:13.367Z,1625.00
2023-05-10T09:58:13.432Z,1552.00
2023-05-10T09:59:13.453Z,1309.00
2023-05-10T10:00:13.527Z,1209.00
2023-05-10T10:01:13.602Z,1150.00
2023-05-10T10:02:13.666Z,1055.00
2023-05-10T10:03:13.693Z,950.00
2023-05-10T10:04:13.772Z,776.00
2023-05-10T10:05:13.993Z,732.00
2023-05-10T10:06:26.372Z,652.00
2023-05-10T10:07:13.844Z,652.00
2023-05-10T10:08:13.863Z,655.00
2023-05-10T10:09:12.825Z,625.00
2023-05-10T10:10:13.852Z,638.00
2023-05-10T10:11:13.890Z,597.00
2023-05-10T10:12:12.787Z,598.00
2023-05-10T10:13:13.812Z,566.00
2023-05-10T10:14:13.789Z,509.00
2023-05-10T10:15:16.522Z,513.00
2023-05-10T10:16:12.853Z,513.00
2023-05-10T10:17:13.763Z,513.00
2023-05-10T10:18:13.779Z,465.00
2023-05-10T10:19:13.747Z,442.00
2023-05-10T10:20:12.742Z,470.00
2023-05-10T10:21:13.783Z,504.00
2023-05-10T10:22:12.736Z,510.00
2023-05-10T10:23:15.116Z,521.00
2023-05-10T10:24:13.712Z,523.00
2023-05-10T10:25:13.786Z,546.00
2023-05-10T10:26:13.765Z,583.00
2023-05-10T10:27:13.702Z,649.00
2023-05-10T10:28:12.723Z,924.00
2023-05-10T10:29:12.698Z,1020.00
2023-05-10T10:30:13.672Z,1070.00
2023-05-10T10:31:13.743Z,1065.00
2023-05-10T10:32:12.668Z,1076.00
2023-05-10T10:33:24.352Z,1103.00
2023-05-10T10:34:13.654Z,1105.00
2023-05-10T10:35:13.688Z,1116.00
2023-05-10T10:36:13.628Z,1133.00
2023-05-10T10:37:12.650Z,1164.00
2023-05-10T10:38:12.603Z,1234.00
2023-05-10T10:39:12.612Z,1232.00
2023-05-10T10:40:12.632Z,1241.00
2023-05-10T10:41:12.597Z,1251.00
2023-05-10T10:42:12.623Z,1184.00
2023-05-10T10:43:13.678Z,1128.00
2023-05-10T10:44:13.559Z,1210.00
2023-05-10T10:45:12.572Z,1189.00
2023-05-10T10:46:13.622Z,1213.00
2023-05-10T10:47:12.743Z,1266.00
2023-05-10T10:48:13.568Z,1313.00
2023-05-10T10:49:12.523Z,1337.00
2023-05-10T10:50:13.549Z,1384.00
2023-05-10T10:51:13.505Z,1431.00
2023-05-10T10:52:13.512Z,1456.00
2023-05-10T10:53:12.599Z,1497.00
2023-05-10T10:54:12.546Z,1535.00
2023-05-10T10:55:13.593Z,1569.00
2023-05-10T10:56:13.629Z,1608.00
2023-05-10T10:57:13.706Z,1642.00
2023-05-10T10:58:13.733Z,1674.00
2023-05-10T10:59:13.786Z,1708.00
2023-05-10T11:00:12.892Z,1811.00
2023-05-10T11:01:13.986Z,1850.00
2023-05-10T11:02:12.942Z,1897.00
2023-05-10T11:03:14.032Z,1947.00
2023-05-10T11:04:14.142Z,1971.00
2023-05-10T11:05:13.068Z,1985.00
2023-05-10T11:06:13.114Z,2017.00
2023-05-10T11:07:14.208Z,2054.00
2023-05-10T11:08:14.190Z,2081.00
2023-05-10T11:09:14.235Z,2098.00
2023-05-10T11:10:13.261Z,2025.00
2023-05-10T11:11:14.365Z,1903.00
2023-05-10T11:12:14.370Z,1649.00
2023-05-10T11:13:13.410Z,1473.00
2023-05-10T11:14:13.404Z,1109.00
2023-05-10T11:15:14.590Z,955.00
2023-05-10T11:16:13.517Z,748.00
2023-05-10T11:17:14.520Z,713.00
2023-05-10T11:18:14.512Z,633.00
2023-05-10T11:19:14.719Z,579.00
2023-05-10T11:20:14.856Z,584.00
2023-05-10T11:21:14.699Z,573.00
2023-05-10T11:22:14.784Z,586.00
2023-05-10T11:23:13.876Z,604.00
2023-05-10T11:24:14.923Z,683.00
2023-05-10T11:25:14.038Z,779.00
2023-05-10T11:26:14.964Z,905.00
2023-05-10T11:27:15.015Z,989.00
2023-05-10T11:28:15.031Z,1013.00
2023-05-10T11:29:15.094Z,1041.00
2023-05-10T11:30:15.360Z,1102.00
2023-05-10T11:31:15.091Z,1114.00
2023-05-10T11:32:14.072Z,1139.00
2023-05-10T11:33:14.072Z,1154.00
2023-05-10T11:34:14.076Z,1179.00
2023-05-10T11:35:14.094Z,1193.00
2023-05-10T11:36:14.087Z,1195.00
2023-05-10T11:37:14.135Z,1137.00
2023-05-10T11:38:15.149Z,1185.00
2023-05-10T11:39:15.179Z,1247.00
2023-05-10T11:40:15.509Z,1232.00
2023-05-10T11:41:15.174Z,1258.00
2023-05-10T11:42:15.136Z,1265.00
2023-05-10T11:43:14.152Z,1299.00
2023-05-10T11:44:15.161Z,1306.00
2023-05-10T11:45:14.170Z,1311.00
2023-05-10T11:46:15.253Z,1332.00
2023-05-10T11:47:14.215Z,1340.00
2023-05-10T11:48:15.284Z,1369.00
2023-05-10T11:49:15.254Z,1371.00
2023-05-10T11:50:14.366Z,1382.00
2023-05-10T11:51:14.290Z,1393.00
2023-05-10T11:52:15.325Z,1399.00
2023-05-10T11:53:14.351Z,1414.00
2023-05-10T11:54:15.383Z,1401.00
2023-05-10T11:55:15.431Z,1432.00
2023-05-10T11:56:15.458Z,1424.00
2023-05-10T11:57:15.516Z,1428.00
2023-05-10T11:58:15.550Z,1431.00
2023-05-10T11:59:14.570Z,1446.00
2023-05-10T12:00:14.911Z,1435.00
2023-05-10T12:01:15.648Z,1437.00
2023-05-10T12:02:14.740Z,1458.00
2023-05-10T12:03:14.883Z,1456.00
2023-05-10T12:04:15.938Z,1457.00
2023-05-10T12:05:14.804Z,1453.00
2023-05-10T12:06:15.830Z,1471.00
2023-05-10T12:07:15.881Z,1473.00
2023-05-10T12:08:15.932Z,1463.00
2023-05-10T12:09:16.740Z,1397.00
2023-05-10T12:10:16.621Z,1253.00
2023-05-10T12:11:14.971Z,1202.00
2023-05-10T12:12:14.963Z,1168.00
2023-05-10T12:13:15.995Z,1199.00
2023-05-10T12:14:15.951Z,1241.00
2023-05-10T12:15:15.940Z,1236.00
2023-05-10T12:16:15.969Z,1278.00
2023-05-10T12:17:15.906Z,1277.00
2023-05-10T12:18:14.968Z,1300.00
2023-05-10T12:19:15.920Z,1331.00
2023-05-10T12:20:15.202Z,1350.00
2023-05-10T12:21:15.902Z,1350.00